createdAt,value
2023-06-09T00:01:37.032Z,10.57
2023-06-09T00:04:40.114Z,9.93
2023-06-09T00:07:43.716Z,10.50
2023-06-09T00:10:47.895Z,9.68
2023-06-09T00:13:50.874Z,10.02
2023-06-09T00:16:54.047Z,10.45
2023-06-09T00:20:02.676Z,10.40
2023-06-09T00:23:05.873Z,10.73
2023-06-09T00:26:10.212Z,9.82
2023-06-09T00:29:13.128Z,10.50
2023-06-09T00:32:16.156Z,10.20
2023-06-09T00:35:19.546Z,10.27
2023-06-09T00:38:22.392Z,9.63
2023-06-09T00:41:27.194Z,10.75
2023-06-09T00:44:29.976Z,10.60
2023-06-09T00:47:33.181Z,9.57
2023-06-09T00:50:36.328Z,9.80
2023-06-09T00:53:40.018Z,11.05
2023-06-09T00:56:44.438Z,10.02
2023-06-09T00:59:47.270Z,10.55
2023-06-09T01:02:50.546Z,10.82
2023-06-09T01:06:01.112Z,10.70
2023-06-09T01:09:13.811Z,11.32
2023-06-09T01:12:33.988Z,10.65
2023-06-09T01:15:42.390Z,10.55
2023-06-09T01:18:47.023Z,10.57
2023-06-09T01:21:53.490Z,10.70
2023-06-09T01:25:06.370Z,11.67
2023-06-09T01:28:13.288Z,12.30
2023-06-09T01:31:17.499Z,11.18
2023-06-09T01:34:20.915Z,11.70
2023-06-09T01:37:24.482Z,11.23
2023-06-09T01:40:27.937Z,11.97
2023-06-09T01:43:32.251Z,12.00
2023-06-09T01:46:35.323Z,12.20
2023-06-09T01:49:44.679Z,11.35
2023-06-09T01:52:54.569Z,10.75
2023-06-09T01:56:04.272Z,12.60
2023-06-09T01:59:10.860Z,10.00
2023-06-09T02:02:15.004Z,10.50
2023-06-09T02:05:19.941Z,11.20
2023-06-09T02:08:23.318Z,10.63
2023-06-09T02:11:26.647Z,9.87
2023-06-09T02:14:35.252Z,10.77
2023-06-09T02:17:38.091Z,11.40
2023-06-09T02:20:41.820Z,11.32
2023-06-09T02:23:44.965Z,10.35
2023-06-09T02:26:51.561Z,10.83
2023-06-09T02:29:55.879Z,11.93
2023-06-09T02:32:59.598Z,10.20
2023-06-09T02:36:02.516Z,11.10
2023-06-09T02:39:07.050Z,9.63
2023-06-09T02:42:10.075Z,10.73
2023-06-09T02:45:14.685Z,10.80
2023-06-09T02:48:17.550Z,11.25
2023-06-09T02:51:20.532Z,11.38
2023-06-09T02:54:23.260Z,13.77
2023-06-09T02:57:27.078Z,12.43
2023-06-09T03:00:34.574Z,11.87
2023-06-09T03:03:39.612Z,11.38
2023-06-09T03:06:44.712Z,14.27
2023-06-09T03:09:47.571Z,12.38
2023-06-09T03:12:50.525Z,11.80
2023-06-09T03:15:55.818Z,10.73
2023-06-09T03:18:58.764Z,11.77
2023-06-09T03:22:04.819Z,11.52
2023-06-09T03:25:08.270Z,13.30
2023-06-09T03:28:11.616Z,12.17
2023-06-09T03:31:15.799Z,11.07
2023-06-09T03:34:18.775Z,11.32
2023-06-09T03:37:21.543Z,13.13
2023-06-09T03:40:24.782Z,11.23
2023-06-09T03:43:27.504Z,12.53
2023-06-09T03:46:32.192Z,11.67
2023-06-09T03:49:34.976Z,12.52
2023-06-09T03:52:41.062Z,12.65
2023-06-09T03:55:44.335Z,12.27
2023-06-09T03:58:47.663Z,12.27
2023-06-09T04:01:52.255Z,13.10
2023-06-09T04:04:55.061Z,13.50
2023-06-09T04:07:58.399Z,11.73
2023-06-09T04:11:01.143Z,11.60
2023-06-09T04:14:04.386Z,11.90
2023-06-09T04:17:08.542Z,12.07
2023-06-09T04:20:13.470Z,12.18
2023-06-09T04:23:16.262Z,11.45
2023-06-09T04:26:19.203Z,12.10
2023-06-09T04:29:24.034Z,12.13
2023-06-09T04:32:33.787Z,11.77
2023-06-09T04:35:37.034Z,13.48
2023-06-09T04:38:40.469Z,11.88
2023-06-09T04:41:43.430Z,11.93
2023-06-09T04:44:48.814Z,12.37
2023-06-09T04:47:52.968Z,10.60
2023-06-09T04:50:55.903Z,11.98
2023-06-09T04:53:59.968Z,10.32
2023-06-09T04:57:03.932Z,11.15
2023-06-09T05:00:09.079Z,13.93
2023-06-09T05:03:14.530Z,9.90
2023-06-09T05:06:17.595Z,10.05
2023-06-09T05:09:20.317Z,10.25
2023-06-09T05:12:23.066Z,9.00
2023-06-09T05:15:27.364Z,10.50
2023-06-09T05:18:32.354Z,8.47
2023-06-09T05:21:35.861Z,8.02
2023-06-09T05:24:38.799Z,9.48
2023-06-09T05:27:41.752Z,8.45
2023-06-09T05:30:44.649Z,7.93
2023-06-09T05:33:48.867Z,8.43
2023-06-09T05:36:51.787Z,8.20
2023-06-09T05:39:54.667Z,7.57
2023-06-09T05:42:57.493Z,8.00
2023-06-09T05:46:00.484Z,7.87
2023-06-09T05:49:04.618Z,11.83
2023-06-09T05:52:07.658Z,9.60
2023-06-09T05:55:11.091Z,7.68
2023-06-09T05:58:14.025Z,8.38
2023-06-09T06:01:17.308Z,7.53
2023-06-09T06:04:21.633Z,7.57
2023-06-09T06:07:24.578Z,8.35
2023-06-09T06:10:27.482Z,8.27
2023-06-09T06:13:30.219Z,7.60
2023-06-09T06:16:33.185Z,6.70
2023-06-09T06:19:37.406Z,7.97
2023-06-09T06:22:40.386Z,8.35
2023-06-09T06:29:03.917Z,6.63
2023-06-09T06:32:08.226Z,7.77
2023-06-09T06:35:12.402Z,6.37
2023-06-09T06:38:15.216Z,10.07
2023-06-09T06:41:18.082Z,6.75
2023-06-09T06:44:21.378Z,6.95
2023-06-09T06:47:24.270Z,6.27
2023-06-09T06:50:29.406Z,6.27
2023-06-09T06:53:32.162Z,7.68
2023-06-09T06:56:35.072Z,8.10
2023-06-09T06:59:37.906Z,7.47
2023-06-09T07:02:41.153Z,7.67
2023-06-09T07:05:45.834Z,7.27
2023-06-09T07:08:48.678Z,6.28
2023-06-09T07:11:51.645Z,7.25
2023-06-09T07:14:54.491Z,8.13
2023-06-09T07:17:57.467Z,7.27
2023-06-09T07:21:04.134Z,11.10
2023-06-09T07:24:08.433Z,6.35
2023-06-09T07:27:11.346Z,7.18
2023-06-09T07:30:14.528Z,7.22
2023-06-09T07:33:17.867Z,6.40
2023-06-09T07:36:21.955Z,6.57
2023-06-09T07:39:24.898Z,7.50
2023-06-09T07:42:27.745Z,6.63
2023-06-09T07:45:31.221Z,7.38
2023-06-09T07:48:34.196Z,8.57
2023-06-09T07:51:38.979Z,8.23
2023-06-09T07:54:41.808Z,7.03
2023-06-09T07:57:45.037Z,8.23
2023-06-09T08:00:47.798Z,6.50
2023-06-09T08:03:50.841Z,8.03
2023-06-09T08:06:55.204Z,8.07
2023-06-09T08:09:58.122Z,6.60
2023-06-09T08:13:00.848Z,9.88
2023-06-09T08:16:03.601Z,8.00
2023-06-09T08:19:06.470Z,7.27
2023-06-09T08:22:10.691Z,7.50
2023-06-09T08:25:13.975Z,7.65
2023-06-09T08:28:16.952Z,7.97
2023-06-09T08:31:19.912Z,8.90
2023-06-09T08:34:22.671Z,7.87
2023-06-09T08:37:27.889Z,6.67
2023-06-09T08:40:30.774Z,7.20
2023-06-09T08:43:33.530Z,7.35
2023-06-09T08:46:38.014Z,7.75
2023-06-09T08:49:42.191Z,8.43
2023-06-09T08:52:46.816Z,7.53
2023-06-09T08:55:50.253Z,7.25
2023-06-09T08:58:53.852Z,7.75
2023-06-09T09:01:57.649Z,7.03
2023-06-09T09:05:01.782Z,9.10
2023-06-09T09:08:06.364Z,7.93
2023-06-09T09:11:09.246Z,7.53
2023-06-09T09:14:12.571Z,6.45
2023-06-09T09:17:17.310Z,7.72
2023-06-09T09:20:20.365Z,9.17
2023-06-09T09:23:31.005Z,7.13
2023-06-09T09:26:34.400Z,6.82
2023-06-09T09:29:43.123Z,7.40
2023-06-09T09:32:46.270Z,7.15
2023-06-09T09:35:50.692Z,7.83
2023-06-09T09:38:57.217Z,7.03
2023-06-09T09:42:04.469Z,9.02
2023-06-09T09:45:08.565Z,7.38
2023-06-09T09:48:12.516Z,7.65
2023-06-09T09:51:18.753Z,9.18
2023-06-09T09:54:24.928Z,8.00
2023-06-09T09:57:31.863Z,9.50
2023-06-09T10:00:36.775Z,7.32
2023-06-09T10:03:42.937Z,7.20
2023-06-09T10:06:46.131Z,8.02
2023-06-09T10:09:52.655Z,7.47
2023-06-09T10:12:57.486Z,8.15
2023-06-09T10:16:01.437Z,7.20
2023-06-09T10:19:05.124Z,7.30
2023-06-09T10:22:09.107Z,8.75
2023-06-09T10:25:14.023Z,7.80
2023-06-09T10:28:17.828Z,7.43
2023-06-09T10:31:22.177Z,8.32
2023-06-09T10:34:26.259Z,9.95
2023-06-09T10:37:30.975Z,8.02
2023-06-09T10:40:44.895Z,8.83
2023-06-09T10:44:09.322Z,8.23
2023-06-09T10:47:12.368Z,6.22
2023-06-09T10:50:26.230Z,7.10
2023-06-09T10:53:29.207Z,7.10
2023-06-09T10:56:37.182Z,7.33
2023-06-09T11:00:13.243Z,7.70
2023-06-09T11:03:32.923Z,8.63
2023-06-09T11:07:14.813Z,7.03
2023-06-09T11:10:38.386Z,7.63
2023-06-09T11:13:42.667Z,8.47
2023-06-09T11:17:18.612Z,7.25
2023-06-09T11:20:23.917Z,6.65
2023-06-09T11:23:26.705Z,7.25
2023-06-09T11:26:30.217Z,7.03
2023-06-09T11:29:34.480Z,6.73
2023-06-09T11:32:46.958Z,7.18
2023-06-09T11:35:50.153Z,7.72
2023-06-09T11:38:53.510Z,6.65
2023-06-09T11:41:58.132Z,6.15
2023-06-09T11:45:04.728Z,7.03
2023-06-09T11:48:08.988Z,6.57
2023-06-09T11:51:12.285Z,5.70
2023-06-09T11:54:15.174Z,6.47
2023-06-09T11:57:18.521Z,6.70
2023-06-09T12:00:27.810Z,6.43
2023-06-09T12:03:34.489Z,6.25
2023-06-09T12:06:38.718Z,6.15
2023-06-09T12:09:42.737Z,5.95
2023-06-09T12:12:46.643Z,6.57
2023-06-09T12:15:55.387Z,5.97
2023-06-09T12:18:58.151Z,5.80
2023-06-09T12:22:02.719Z,6.43
2023-06-09T12:25:20.525Z,7.10
2023-06-09T12:28:24.882Z,6.93
2023-06-09T12:31:29.186Z,6.17
2023-06-09T12:34:31.953Z,6.82
2023-06-09T12:37:39.207Z,6.80
2023-06-09T12:40:50.426Z,5.90
2023-06-09T12:43:56.089Z,7.20
2023-06-09T12:47:00.216Z,7.23
2023-06-09T12:50:03.008Z,6.32
2023-06-09T12:53:08.287Z,6.50
2023-06-09T12:56:11.021Z,7.10
2023-06-09T12:59:13.933Z,6.60
2023-06-09T13:02:18.219Z,6.10
2023-06-09T13:05:22.204Z,7.35
2023-06-09T13:08:25.272Z,7.75
2023-06-09T13:11:28.613Z,6.00
2023-06-09T13:14:31.515Z,6.20
2023-06-09T13:17:35.860Z,7.73
2023-06-09T13:20:38.758Z,6.53
2023-06-09T13:23:41.732Z,8.38
2023-06-09T13:26:44.943Z,7.72
2023-06-09T13:29:47.791Z,6.95
2023-06-09T13:32:51.958Z,7.23
2023-06-09T13:35:55.604Z,6.35
2023-06-09T13:38:58.340Z,7.40
2023-06-09T13:42:01.219Z,5.82
2023-06-09T13:45:04.171Z,7.90
2023-06-09T13:48:08.961Z,9.23
2023-06-09T13:51:11.818Z,7.15
2023-06-09T13:54:14.621Z,6.60
2023-06-09T13:57:17.819Z,6.22
2023-06-09T14:00:21.115Z,6.70
2023-06-09T14:03:25.618Z,7.00
2023-06-09T14:06:28.466Z,6.70
2023-06-09T14:09:31.273Z,6.70
2023-06-09T14:12:34.943Z,6.73
2023-06-09T14:15:37.826Z,6.33
2023-06-09T14:18:42.817Z,7.18
2023-06-09T14:21:45.743Z,6.05
2023-06-09T14:24:48.767Z,8.15
2023-06-09T14:27:54.657Z,7.70
2023-06-09T14:30:57.629Z,6.73
2023-06-09T14:34:01.717Z,6.60
2023-06-09T14:37:04.655Z,8.32
2023-06-09T14:40:09.897Z,7.63
2023-06-09T14:43:12.802Z,6.10
2023-06-09T14:46:16.381Z,6.83
2023-06-09T14:49:20.790Z,6.47
2023-06-09T14:52:23.658Z,7.20
2023-06-09T14:55:28.160Z,6.40
2023-06-09T14:58:31.114Z,6.27
2023-06-09T15:01:33.933Z,8.17
2023-06-09T15:04:38.346Z,7.68
2023-06-09T15:07:41.114Z,6.97
2023-06-09T15:10:46.079Z,6.47
2023-06-09T15:13:48.996Z,6.13
2023-06-09T15:16:52.994Z,6.53
2023-06-09T15:19:57.514Z,7.32
2023-06-09T15:23:01.725Z,8.17
2023-06-09T15:26:04.659Z,6.65
2023-06-09T15:29:07.408Z,6.40
2023-06-09T15:32:10.578Z,7.15
2023-06-09T15:35:14.869Z,6.20
2023-06-09T15:38:18.372Z,7.38
2023-06-09T15:41:21.534Z,6.60
2023-06-09T15:44:24.230Z,6.82
2023-06-09T15:47:30.275Z,6.70
2023-06-09T15:50:34.467Z,7.67
2023-06-09T15:53:38.008Z,6.00
2023-06-09T15:56:40.972Z,6.65
2023-06-09T15:59:43.890Z,5.90
2023-06-09T16:02:46.655Z,5.90
2023-06-09T16:05:51.093Z,7.67
2023-06-09T16:08:53.877Z,7.38
2023-06-09T16:11:56.820Z,6.40
2023-06-09T16:15:00.281Z,6.35
2023-06-09T16:18:04.714Z,7.40
2023-06-09T16:21:09.285Z,5.80
2023-06-09T16:24:12.057Z,6.35
2023-06-09T16:27:14.894Z,6.63
2023-06-09T16:30:17.763Z,8.98
2023-06-09T16:33:20.561Z,7.00
2023-06-09T16:36:24.849Z,7.17
2023-06-09T16:39:27.566Z,7.53
2023-06-09T16:42:30.491Z,6.20
2023-06-09T16:45:33.449Z,7.30
2023-06-09T16:48:36.484Z,8.87
2023-06-09T16:51:40.788Z,7.00
2023-06-09T16:54:43.511Z,7.30
2023-06-09T16:57:46.389Z,6.30
2023-06-09T17:00:49.196Z,8.68
2023-06-09T17:03:51.991Z,6.97
2023-06-09T17:06:56.284Z,7.97
2023-06-09T17:10:00.026Z,7.90
2023-06-09T17:13:03.145Z,7.90
2023-06-09T17:16:06.480Z,7.95
2023-06-09T17:19:09.272Z,7.40
2023-06-09T17:22:13.530Z,6.40
2023-06-09T17:25:16.632Z,7.18
2023-06-09T17:28:19.504Z,7.05
2023-06-09T17:31:22.258Z,7.47
2023-06-09T17:34:25.211Z,7.33
2023-06-09T17:37:29.362Z,8.10
2023-06-09T17:40:32.112Z,7.45
2023-06-09T17:43:34.973Z,6.65
2023-06-09T17:46:37.861Z,7.80
2023-06-09T17:49:40.607Z,7.80
2023-06-09T17:52:44.869Z,6.37
2023-06-09T17:55:47.580Z,7.88
2023-06-09T17:58:50.480Z,7.47
2023-06-09T18:01:53.494Z,7.15
2023-06-09T18:04:56.184Z,6.80
2023-06-09T18:08:00.570Z,6.80
2023-06-09T18:11:04.266Z,7.40
2023-06-09T18:14:07.142Z,7.95
2023-06-09T18:17:09.958Z,7.35
2023-06-09T18:20:13.178Z,8.03
2023-06-09T18:23:17.328Z,6.83
2023-06-09T18:26:20.271Z,7.53
2023-06-09T18:29:23.072Z,6.75
2023-06-09T18:32:25.995Z,7.40
2023-06-09T18:35:28.790Z,8.03
2023-06-09T18:38:33.060Z,6.80
2023-06-09T18:41:35.827Z,6.00
2023-06-09T18:44:38.755Z,9.00
2023-06-09T18:47:42.166Z,7.00
2023-06-09T18:50:45.891Z,8.87
2023-06-09T18:53:50.178Z,5.47
2023-06-09T18:56:53.046Z,7.40
2023-06-09T18:59:55.803Z,8.20
2023-06-09T19:02:58.869Z,7.22
2023-06-09T19:06:01.744Z,7.97
2023-06-09T19:09:06.358Z,6.17
2023-06-09T19:12:09.805Z,7.57
2023-06-09T19:15:12.606Z,6.68
2023-06-09T19:18:15.702Z,8.20
2023-06-09T19:21:19.788Z,10.60
2023-06-09T19:24:23.949Z,8.43
2023-06-09T19:27:26.828Z,7.47
2023-06-09T19:30:29.719Z,9.55
2023-06-09T19:33:33.225Z,9.77
2023-06-09T19:36:36.160Z,9.23
2023-06-09T19:39:40.280Z,7.43
2023-06-09T19:42:43.214Z,6.75
2023-06-09T19:45:45.998Z,8.63
2023-06-09T19:48:48.989Z,8.45
2023-06-09T19:51:52.043Z,8.97
2023-06-09T19:54:56.180Z,8.47
2023-06-09T19:57:59.078Z,10.75
2023-06-09T20:01:02.662Z,7.82
2023-06-09T20:04:05.883Z,8.55
2023-06-09T20:07:08.885Z,7.80
2023-06-09T20:10:13.163Z,8.80
2023-06-09T20:13:16.787Z,7.13
2023-06-09T20:16:20.632Z,7.18
2023-06-09T20:19:23.416Z,9.15
2023-06-09T20:22:26.368Z,9.73
2023-06-09T20:25:31.043Z,9.00
2023-06-09T20:28:34.013Z,6.85
2023-06-09T20:31:36.861Z,9.23
2023-06-09T20:34:39.804Z,7.53
2023-06-09T20:37:42.655Z,9.63
2023-06-09T20:40:46.985Z,8.23
2023-06-09T20:43:50.592Z,8.07
2023-06-09T20:46:53.909Z,8.82
2023-06-09T20:49:57.569Z,8.88
2023-06-09T20:53:00.488Z,10.70
2023-06-09T20:56:04.962Z,10.37
2023-06-09T20:59:07.867Z,7.10
2023-06-09T21:02:10.986Z,9.77
2023-06-09T21:05:13.914Z,7.85
2023-06-09T21:08:16.974Z,9.47
2023-06-09T21:11:21.631Z,8.33
2023-06-09T21:14:24.397Z,8.10
2023-06-09T21:17:29.699Z,9.52
2023-06-09T21:20:34.023Z,8.50
2023-06-09T21:23:37.526Z,9.27
2023-06-09T21:26:42.537Z,8.67
2023-06-09T21:29:45.440Z,8.13
2023-06-09T21:32:48.302Z,8.20
2023-06-09T21:35:51.366Z,10.93
2023-06-09T21:38:54.273Z,9.13
2023-06-09T21:41:58.374Z,9.90
2023-06-09T21:45:01.299Z,7.43
2023-06-09T21:48:04.726Z,8.50
2023-06-09T21:51:07.475Z,9.85
2023-06-09T21:54:10.324Z,8.68
2023-06-09T21:57:14.453Z,8.85
2023-06-09T22:00:19.194Z,9.03
2023-06-09T22:03:22.127Z,9.27
2023-06-09T22:06:24.997Z,9.65
2023-06-09T22:09:27.934Z,9.23
2023-06-09T22:12:38.850Z,9.80
2023-06-09T22:15:42.737Z,10.93
2023-06-09T22:18:47.374Z,7.75
2023-06-09T22:21:50.301Z,9.32
2023-06-09T22:24:53.189Z,10.05
2023-06-09T22:27:57.294Z,8.45
2023-06-09T22:31:00.198Z,8.93
2023-06-09T22:34:02.971Z,10.38
2023-06-09T22:37:06.657Z,9.40
2023-06-09T22:40:10.421Z,8.77
2023-06-09T22:43:14.799Z,8.88
2023-06-09T22:46:17.682Z,8.53
2023-06-09T22:49:21.636Z,9.55
2023-06-09T22:52:24.460Z,8.95
2023-06-09T22:55:27.249Z,11.73
2023-06-09T22:58:31.471Z,9.07
2023-06-09T23:01:34.233Z,9.03
2023-06-09T23:04:37.199Z,9.85
2023-06-09T23:07:40.848Z,8.45
2023-06-09T23:10:43.780Z,7.38
2023-06-09T23:13:47.944Z,9.43
2023-06-09T23:16:50.941Z,9.20
2023-06-09T23:19:53.970Z,9.85
2023-06-09T23:23:00.544Z,9.90
2023-06-09T23:26:03.596Z,9.35
2023-06-09T23:29:07.748Z,8.15
2023-06-09T23:32:13.154Z,8.23
2023-06-09T23:35:18.255Z,9.82
2023-06-09T23:38:21.763Z,9.98
2023-06-09T23:41:26.714Z,11.43
2023-06-09T23:44:31.047Z,6.82
2023-06-09T23:47:33.884Z,9.97
2023-06-09T23:50:36.832Z,9.07
2023-06-09T23:53:39.684Z,8.63
2023-06-09T23:56:45.595Z,8.93
2023-06-09T23:59:49.829Z,8.88
